首页
METAR-TAF:

METAR-TAF

机场 :

瓦岱國際機場

永珍, 老挝

纬度: 17-57N, 经度: 102-34E, 海拔: 171米

当前天气观测

该预报发布于45分钟前的16:30 UTC
风速4节,风向
温度 21°C
湿度 69%
气压 1018 hPa
能見度: 4000
散云层高于4000英尺
轻雾

METAR: VLVT 121630Z 09004KT 4000 BR SCT040 21/15 Q1018 NOSIG

时间: 00:15 (17:15 UTC)

预报

该预报发布于6小时和15分钟前的11:00 UTC
预报有效从12日的 12点(UTC)到 13日的 12点(UTC)
风速6节,风向
能見度: 8000
散云层高于2000英尺
多云层高于5000英尺
短暂存在
从 12日的 14点(UTC)到 12日的 20点(UTC)
能見度: 3000
多云层高于4000英尺
多云层高于8300英尺
轻雾

TAF: VLVT 121100Z 1212/1312 09006KT 8000 SCT020 BKN050 TEMPO 1214/1220 3000 BR BKN040 BKN083

超过4000个机场的气象观测和天气预报(METAR&TAF报告)。

可查询的气象台以黄色和红色小点在地图上表示。

将鼠标移到小点上方,可查看气象台名称。

然后点击查看天气观测和预报。

如需切换地图:点击带黑十字的绿色按钮放大地图;点击带横线的绿色按钮缩小地图;或者点击绿色箭头查看邻近地区的地图。


METAR-TAF: